Southwest Georgia Regional Airport
KABY : now visible

Airfield :











YOU CAN JOIN US ON...

 
LOGIN :

Register | Disclaimer

   EN    FR    IT 

 









Legend :    VFR   Marginal VFR   IFR   Intensive IFR   Very Intensive IFR
Visi :
Ceiling :
>= 8 km
>= 3000ft
5 to 8 km
1000 to 3000 ft
1500m to 5 km
500 to 1000 ft
800 to 1500m
200 to 500 ft
< 800m
< 200 ft
Symbols :   Thunderstorms  Fog  Heavy snow  Heavy precipitations  Wind > 20 kt






- Airport Elevation : 197 ft
- IATA code : ABY


KABY - Southwest Georgia Regional

CURRENT METAR :
  • 230053Z AUTO 16004KT 10SM CLR 27/24 A3006 RMK AO2 SLP176 T02670239

EXPIRED METARs :
  • 230042Z AUTO 00000KT 8SM FEW002 27/24 A3005 RMK AO2 T02670239
  • 222353Z AUTO 00000KT 10SM CLR 27/23 A3003 RMK AO2 RAE32 SLP167 P0000 60000 T02720233 10328 20272 53002
  • 222253Z 23005KT 10SM -RA SCT060 BKN080 OVC100 28/24 A3002 RMK AO2 RAB19 SLP164 P0000 T02780239
  • 222153Z 23006KT 10SM FEW045 30/23 A3002 RMK AO2 SLP165 T03000228
  • 222053Z 25005KT 10SM FEW065 33/23 A3003 RMK AO2 SLP165 T03280233 56019

TAF KABY
Valid from the 23 at 00:00 until the 24 at 00:00 UTC


222341Z 2300/2324 20004KT P6SM SCT100
FM230900 VRB02KT 4SM BR BKN006
FM231200 21004KT P6SM SCT040
FM232000 20007KT P6SM VCTS SCT050CB
KZJX FIR / North America



MET'MAP, your aeronautical weather chart ! - Copyright ORBIFLY December 2007 - Disclaimer

ORBIFLY MET'MAP TEAM :

Programming & Development : Alexandra Zaïnal
Original concept : Baudouin d'Aumeries
Technical & hardware support : Manuel Goepfert
Assistance : Marc-Olivier Méhu




SOURCES & CREDITS :

   NOAA       Earth
Advisory